Pagina principală
METAR-TAF:

METAR-TAF

Aeroporturi :

Veliko Tărnovo, Bulgaria

Latitudine: 43-09N, longitudine: 025-36E, elevație: 87 m

Observații meteo curente

Raportul a fost făcut în urmă cu 24 de minute, la 14:30 UTC
Vânt 5 kt de la Nord-vest, variabil între Sud-vest și Nord/Nord-est
Temperatură 28°C
Umiditate 35%
Presiune 1011 hPa
Vizibilitate de 10 km sau mai mult

METAR: LBGO 151430Z AUTO 31005KT 230V020 9999 NCD 28/11 Q1011 NOSIG

Ora: 17:54 (14:54 UTC)

Prognoză

Raportul a fost făcut în urmă cu 3 ore și 54 de minute, la 11:00 UTC
Prognoză valabilă de la 15 ora 12 UTC la 16 ora 12 UTC
Vânt 10 kt de la Vest/Nord-vest
Vizibilitate de 10 km sau mai mult
nu există nori sub 1.500 m și nici cumulonimbus
Devenind
de la 15 ora 13 UTC la 15 ora 15 UTC
Vânt 4 kt din direcții variabile
Devenind
de la 16 ora 09 UTC la 16 ora 11 UTC
Vânt 10 kt de la Nord/Nord-vest

TAF: LBGO 151100Z 1512/1612 29010KT CAVOK BECMG 1513/1515 VRB04KT BECMG 1609/1611 34010KT

Observații și prognoze meteo pentru peste 4.000 de aeroporturi (rapoarte METAR și TAF).

Stațiile disponibile sunt reprezentate pe hartă prin puncte galbene și roșii.

Țineți indicatorul mouse-ului pe punctul dorit pentru a vedea denumirea stației.

Apoi, faceți clic pentru a vedea observațiile și prognozele meteorologice.

Pentru a schimba harta: Pentru mărire, faceți clic pe butoanele verzi cu cruce neagră; pentru micșorare, pe butonul verde cu o liniuță; pentru hărți învecinate, pe săgețile verzi.


METAR-TAF: